Time;durP1;ratioP1;P1;durP2;ratioP2;P2;SDS_P1;SDS_P2;PMS_P1;PMS_P2;Temp;Humidity;BMP_temperature;BMP_pressure;BME280_temperature;BME280_humidity;BME280_pressure;Samples;Min_cycle;Max_cycle;Signal;HPM_P1;HPM_P2
2021/01/14 00:02:06;;;;;;;4.88;1.30;;;;;;;;;;5053417;28;20087;-81
2021/01/14 00:04:32;;;;;;;8.98;1.85;;;;;;;;;;5063003;28;20052;-81
2021/01/14 00:06:59;;;;;;;5.35;1.88;;;;;;;;;;5060645;28;20095;-81
2021/01/14 00:09:26;;;;;;;6.03;1.80;;;;;;;;;;5054797;28;20190;-81
2021/01/14 00:11:54;;;;;;;4.15;1.13;;;;;;;;;;5044805;28;20049;-81
2021/01/14 00:14:21;;;;;;;7.38;1.40;;;;;;;;;;5061837;28;20103;-81
2021/01/14 00:16:52;;;;;;;4.47;1.77;;;;;;;;;;5058620;28;20117;-81
2021/01/14 00:19:18;;;;;;;4.43;1.80;;;;;;;;;;5058340;28;20049;-81
2021/01/14 00:21:48;;;;;;;4.47;1.10;;;;;;;;;;5073282;28;20052;-80
2021/01/14 00:24:16;;;;;;;2.75;1.30;;;;;;;;;;5064044;28;20771;-81
2021/01/14 00:26:43;;;;;;;4.55;2.55;;;;;;;;;;5056417;28;20131;-81
2021/01/14 00:29:10;;;;;;;1.63;1.08;;;;;;;;;;5060334;28;20083;-81
2021/01/14 00:31:37;;;;;;;1.80;0.82;;;;;;;;;;5051794;28;20505;-82
2021/01/14 00:34:07;;;;;;;2.78;1.00;;;;;;;;;;5060670;28;20091;-81
2021/01/14 00:37:50;;;;;;;4.47;1.30;;;;;;;;;;5054686;28;20123;-81
2021/01/14 00:39:22;;;;;;;6.10;1.25;;;;;;;;;;5046775;28;20045;-81
2021/01/14 00:41:48;;;;;;;6.82;1.95;;;;;;;;;;5050238;28;20106;-81
2021/01/14 00:44:15;;;;;;;3.42;1.40;;;;;;;;;;5055788;28;20077;-81
2021/01/14 00:46:42;;;;;;;8.25;1.58;;;;;;;;;;5057885;28;20554;-81
2021/01/14 00:49:08;;;;;;;4.13;1.55;;;;;;;;;;5055205;28;20568;-82
2021/01/14 00:51:35;;;;;;;11.40;1.85;;;;;;;;;;5056216;28;20083;-81
2021/01/14 00:54:02;;;;;;;4.53;1.30;;;;;;;;;;5053949;28;20080;-82
2021/01/14 00:56:35;;;;;;;4.78;1.13;;;;;;;;;;5062320;28;20103;-82
2021/01/14 00:59:03;;;;;;;6.15;2.42;;;;;;;;;;5052604;28;20490;-82
2021/01/14 01:01:30;;;;;;;2.53;1.00;;;;;;;;;;5057412;28;20130;-82
2021/01/14 01:03:57;;;;;;;5.07;1.30;;;;;;;;;;5062484;28;20081;-82
2021/01/14 01:06:24;;;;;;;4.05;1.30;;;;;;;;;;5065213;28;20482;-82
2021/01/14 01:08:51;;;;;;;2.42;1.30;;;;;;;;;;5063790;28;20100;-82
2021/01/14 01:11:24;;;;;;;4.13;1.13;;;;;;;;;;5068879;28;20101;-82
2021/01/14 01:13:50;;;;;;;5.18;1.27;;;;;;;;;;5058627;28;20672;-82
2021/01/14 01:16:20;;;;;;;4.03;1.17;;;;;;;;;;5054866;28;20056;-82
2021/01/14 01:18:49;;;;;;;4.53;1.17;;;;;;;;;;5057593;28;20102;-82
2021/01/14 01:21:16;;;;;;;2.45;1.00;;;;;;;;;;5059403;28;20075;-82
2021/01/14 01:23:42;;;;;;;7.10;1.20;;;;;;;;;;5071260;28;20501;-82
2021/01/14 01:26:14;;;;;;;4.47;1.15;;;;;;;;;;5062111;28;20086;-82
2021/01/14 01:28:41;;;;;;;2.58;1.02;;;;;;;;;;5060841;28;20049;-82
2021/01/14 01:31:10;;;;;;;4.10;1.00;;;;;;;;;;5060172;28;20748;-82
2021/01/14 01:33:37;;;;;;;4.60;1.05;;;;;;;;;;5065077;28;20090;-82
2021/01/14 01:36:06;;;;;;;4.15;1.60;;;;;;;;;;5055565;28;20098;-82
2021/01/14 01:38:33;;;;;;;1.77;0.70;;;;;;;;;;5063046;28;20048;-82
2021/01/14 01:41:03;;;;;;;6.40;1.40;;;;;;;;;;5056454;28;20556;-82
2021/01/14 01:43:30;;;;;;;6.93;1.02;;;;;;;;;;5059432;28;20048;-82
2021/01/14 01:46:01;;;;;;;6.28;1.65;;;;;;;;;;5066512;28;20052;-82
2021/01/14 01:48:28;;;;;;;6.10;1.80;;;;;;;;;;5059376;28;20115;-82
2021/01/14 01:50:56;;;;;;;8.90;1.92;;;;;;;;;;5052642;28;20057;-82
2021/01/14 01:53:30;;;;;;;12.80;2.15;;;;;;;;;;5044400;28;20046;-82
2021/01/14 01:55:59;;;;;;;16.23;2.03;;;;;;;;;;5052521;28;20106;-82
2021/01/14 01:58:28;;;;;;;19.05;2.20;;;;;;;;;;5062419;28;20045;-82
2021/01/14 02:01:03;;;;;;;11.70;2.08;;;;;;;;;;5043026;28;20057;-82
2021/01/14 02:03:33;;;;;;;7.30;2.00;;;;;;;;;;5055603;28;20044;-82
2021/01/14 02:06:00;;;;;;;16.65;2.33;;;;;;;;;;5053095;28;20079;-82
2021/01/14 02:08:40;;;;;;;8.50;2.10;;;;;;;;;;5059658;28;20041;-82
2021/01/14 02:11:11;;;;;;;10.82;2.25;;;;;;;;;;5061020;28;20045;-82
2021/01/14 02:13:45;;;;;;;13.30;2.03;;;;;;;;;;5053831;28;20837;-81
2021/01/14 02:16:13;;;;;;;11.05;2.15;;;;;;;;;;5068919;28;20087;-82
2021/01/14 02:18:41;;;;;;;16.60;2.13;;;;;;;;;;5051072;28;20081;-82
2021/01/14 02:21:08;;;;;;;9.90;2.30;;;;;;;;;;5058185;28;20052;-82
2021/01/14 02:23:47;;;;;;;5.80;1.67;;;;;;;;;;5060819;28;20103;-82
2021/01/14 02:26:22;;;;;;;13.80;2.20;;;;;;;;;;5060784;28;20145;-82
2021/01/14 02:28:49;;;;;;;6.57;2.60;;;;;;;;;;5056861;28;20087;-83
2021/01/14 02:31:16;;;;;;;10.98;2.75;;;;;;;;;;5048821;28;20770;-82
2021/01/14 02:33:44;;;;;;;9.80;2.45;;;;;;;;;;5051039;28;20104;-82
2021/01/14 02:36:12;;;;;;;16.48;2.90;;;;;;;;;;5059445;28;20052;-82
2021/01/14 02:38:51;;;;;;;9.68;2.60;;;;;;;;;;5056358;28;20050;-82
2021/01/14 02:41:33;;;;;;;9.82;3.13;;;;;;;;;;5059584;28;20436;-82
2021/01/14 02:44:00;;;;;;;17.15;3.15;;;;;;;;;;5056713;28;20086;-82
2021/01/14 02:46:27;;;;;;;12.48;3.00;;;;;;;;;;5059129;28;20564;-82
2021/01/14 02:49:00;;;;;;;13.05;3.22;;;;;;;;;;5057194;28;20543;-82
2021/01/14 02:51:49;;;;;;;13.70;3.00;;;;;;;;;;5060186;28;20103;-82
2021/01/14 02:54:16;;;;;;;9.85;2.58;;;;;;;;;;5056591;28;20045;-82
2021/01/14 02:56:45;;;;;;;4.65;2.47;;;;;;;;;;5060305;28;20135;-82
2021/01/14 02:59:14;;;;;;;13.07;3.30;;;;;;;;;;5059766;28;20148;-82
2021/01/14 03:01:40;;;;;;;9.07;2.67;;;;;;;;;;5054103;28;20069;-82
2021/01/14 03:04:10;;;;;;;10.85;2.90;;;;;;;;;;5058999;28;20094;-82
2021/01/14 03:06:37;;;;;;;13.35;3.00;;;;;;;;;;5059081;28;20079;-82
2021/01/14 03:09:04;;;;;;;6.78;2.35;;;;;;;;;;5059304;28;20041;-82
2021/01/14 03:11:32;;;;;;;12.93;2.45;;;;;;;;;;5063028;28;20126;-83
2021/01/14 03:13:58;;;;;;;12.82;3.05;;;;;;;;;;5058119;28;20056;-82
2021/01/14 03:16:26;;;;;;;8.85;2.60;;;;;;;;;;5055516;28;20044;-82
2021/01/14 03:18:53;;;;;;;8.88;2.72;;;;;;;;;;5057630;28;20136;-82
2021/01/14 03:21:23;;;;;;;7.18;2.67;;;;;;;;;;5061701;28;20146;-82
2021/01/14 03:23:52;;;;;;;9.90;3.15;;;;;;;;;;5058609;28;20106;-82
2021/01/14 03:26:20;;;;;;;9.57;2.85;;;;;;;;;;5067771;28;20060;-82
2021/01/14 03:28:47;;;;;;;10.35;3.47;;;;;;;;;;5063536;28;20568;-82
2021/01/14 03:31:15;;;;;;;12.15;4.07;;;;;;;;;;5054847;28;20053;-82
2021/01/14 03:33:42;;;;;;;12.65;3.80;;;;;;;;;;5053562;28;20122;-82
2021/01/14 03:36:10;;;;;;;11.95;4.20;;;;;;;;;;5060368;28;20053;-82
2021/01/14 03:38:37;;;;;;;13.52;4.60;;;;;;;;;;5069095;28;20168;-82
2021/01/14 03:41:10;;;;;;;13.35;4.28;;;;;;;;;;5062241;28;20089;-82
2021/01/14 03:43:38;;;;;;;10.02;4.30;;;;;;;;;;5060950;28;20533;-82
2021/01/14 03:46:07;;;;;;;12.77;4.05;;;;;;;;;;5071362;28;20057;-82
2021/01/14 03:48:38;;;;;;;12.20;4.03;;;;;;;;;;5062356;28;20114;-82
2021/01/14 03:51:04;;;;;;;19.05;4.30;;;;;;;;;;5062052;28;20132;-82
2021/01/14 03:53:33;;;;;;;15.48;4.20;;;;;;;;;;5058475;28;20072;-82
2021/01/14 03:56:01;;;;;;;12.30;3.60;;;;;;;;;;5067240;28;20724;-82
2021/01/14 03:58:27;;;;;;;14.43;4.25;;;;;;;;;;5058642;28;20122;-82
2021/01/14 04:00:54;;;;;;;11.88;3.78;;;;;;;;;;5065764;28;20103;-82
2021/01/14 04:03:23;;;;;;;17.05;4.80;;;;;;;;;;5056009;28;20088;-82
2021/01/14 04:05:50;;;;;;;20.30;4.80;;;;;;;;;;5059510;28;20496;-82
2021/01/14 04:08:24;;;;;;;17.88;5.80;;;;;;;;;;5054279;28;20080;-82
2021/01/14 04:10:51;;;;;;;10.27;4.93;;;;;;;;;;5063505;28;20076;-82
2021/01/14 04:13:19;;;;;;;12.23;5.32;;;;;;;;;;5058126;28;20115;-82
2021/01/14 04:15:45;;;;;;;13.13;5.72;;;;;;;;;;5055980;28;20071;-82
2021/01/14 04:18:12;;;;;;;19.05;6.03;;;;;;;;;;5055436;28;20049;-83
2021/01/14 04:20:42;;;;;;;14.25;4.88;;;;;;;;;;5061031;28;20049;-82
2021/01/14 04:23:21;;;;;;;18.77;6.00;;;;;;;;;;5062274;28;20107;-83
2021/01/14 04:25:47;;;;;;;15.63;5.68;;;;;;;;;;5042351;28;20465;-83
2021/01/14 04:28:17;;;;;;;16.48;5.40;;;;;;;;;;5047012;28;20611;-82
2021/01/14 04:30:43;;;;;;;14.77;5.75;;;;;;;;;;5061355;28;20098;-82
2021/01/14 04:33:14;;;;;;;17.30;5.78;;;;;;;;;;5053114;28;20656;-83
2021/01/14 04:35:47;;;;;;;21.55;7.18;;;;;;;;;;5060913;28;20049;-84
2021/01/14 04:38:21;;;;;;;23.90;7.68;;;;;;;;;;5060582;28;20052;-83
2021/01/14 04:40:55;;;;;;;19.58;8.00;;;;;;;;;;5061891;28;20111;-83
2021/01/14 04:43:22;;;;;;;18.25;8.48;;;;;;;;;;5062936;28;20085;-83
2021/01/14 04:45:49;;;;;;;20.40;8.25;;;;;;;;;;5060303;28;20087;-83
2021/01/14 04:48:18;;;;;;;25.02;8.95;;;;;;;;;;5062376;28;20094;-84
2021/01/14 04:50:46;;;;;;;24.00;9.25;;;;;;;;;;5066264;28;20102;-83
2021/01/14 04:53:20;;;;;;;25.00;9.82;;;;;;;;;;5056103;28;20057;-84
2021/01/14 04:55:48;;;;;;;30.25;9.40;;;;;;;;;;5060729;28;20041;-84
2021/01/14 04:58:21;;;;;;;28.00;9.60;;;;;;;;;;5053748;28;20049;-83
2021/01/14 05:00:49;;;;;;;30.30;9.43;;;;;;;;;;5059235;28;20049;-83
2021/01/14 05:03:20;;;;;;;34.35;10.93;;;;;;;;;;5047324;28;20430;-83
2021/01/14 05:06:00;;;;;;;29.55;10.75;;;;;;;;;;5049258;28;20084;-83
2021/01/14 05:08:28;;;;;;;32.50;11.07;;;;;;;;;;5057671;28;20439;-83
2021/01/14 05:10:56;;;;;;;32.22;10.93;;;;;;;;;;5059072;28;20045;-84
2021/01/14 05:13:28;;;;;;;24.50;11.25;;;;;;;;;;5060753;28;20052;-85
2021/01/14 05:15:55;;;;;;;22.70;10.80;;;;;;;;;;5059952;28;20045;-84
2021/01/14 05:18:21;;;;;;;26.38;10.85;;;;;;;;;;5061332;28;20144;-84
2021/01/14 05:20:48;;;;;;;29.35;11.40;;;;;;;;;;5054326;28;20098;-84
2021/01/14 05:23:19;;;;;;;32.10;11.90;;;;;;;;;;5061287;28;20049;-85
2021/01/14 05:25:52;;;;;;;25.20;10.77;;;;;;;;;;5056596;28;20087;-85
2021/01/14 05:28:20;;;;;;;27.95;11.00;;;;;;;;;;5063221;28;20053;-84
2021/01/14 05:30:47;;;;;;;27.05;11.23;;;;;;;;;;5054802;28;20053;-84
2021/01/14 05:33:15;;;;;;;29.70;11.10;;;;;;;;;;5052005;28;20471;-84
2021/01/14 05:35:49;;;;;;;31.05;12.13;;;;;;;;;;5059203;28;20087;-84
2021/01/14 05:38:29;;;;;;;36.53;12.40;;;;;;;;;;5060779;28;20098;-84
2021/01/14 05:41:18;;;;;;;32.00;11.75;;;;;;;;;;5059405;28;20102;-85
2021/01/14 05:44:04;;;;;;;30.42;11.23;;;;;;;;;;5052237;28;20049;-85
2021/01/14 05:46:31;;;;;;;34.10;14.48;;;;;;;;;;5063618;28;20102;-84
2021/01/14 05:49:05;;;;;;;30.55;11.50;;;;;;;;;;5065976;28;20068;-84
2021/01/14 05:51:32;;;;;;;30.70;11.38;;;;;;;;;;5068588;28;20110;-84
2021/01/14 05:53:59;;;;;;;27.90;11.73;;;;;;;;;;5061969;28;20563;-83
2021/01/14 05:56:38;;;;;;;33.92;13.10;;;;;;;;;;5059828;28;20075;-84
2021/01/14 05:59:05;;;;;;;32.88;12.05;;;;;;;;;;5059742;28;20094;-84
2021/01/14 06:01:38;;;;;;;27.38;11.35;;;;;;;;;;5052892;28;20064;-84
2021/01/14 06:04:15;;;;;;;33.80;12.25;;;;;;;;;;5060201;28;20501;-85
2021/01/14 06:06:49;;;;;;;30.08;11.40;;;;;;;;;;5051177;28;20040;-82
2021/01/14 06:09:17;;;;;;;29.05;11.13;;;;;;;;;;5056431;28;20137;-80
2021/01/14 06:11:44;;;;;;;26.88;11.27;;;;;;;;;;5061448;28;20410;-81
2021/01/14 06:14:26;;;;;;;27.33;12.15;;;;;;;;;;5051984;28;20118;-81
2021/01/14 06:16:53;;;;;;;27.60;10.95;;;;;;;;;;5054153;28;20052;-81
2021/01/14 06:19:24;;;;;;;27.30;12.02;;;;;;;;;;5057467;28;20386;-81
2021/01/14 06:21:55;;;;;;;19.55;8.95;;;;;;;;;;5057449;28;20091;-81
2021/01/14 06:24:25;;;;;;;27.98;10.32;;;;;;;;;;5060462;28;20102;-81
2021/01/14 06:26:57;;;;;;;25.40;10.48;;;;;;;;;;5061227;28;20049;-81
2021/01/14 06:29:28;;;;;;;24.48;8.85;;;;;;;;;;5055320;28;20056;-80
2021/01/14 06:32:13;;;;;;;29.10;11.73;;;;;;;;;;5057560;28;20044;-80
2021/01/14 06:34:43;;;;;;;36.17;16.00;;;;;;;;;;5058985;28;20045;-80
2021/01/14 06:37:20;;;;;;;37.30;17.77;;;;;;;;;;5059448;28;20505;-81
2021/01/14 06:39:54;;;;;;;28.20;12.45;;;;;;;;;;5059504;28;20238;-80
2021/01/14 06:42:24;;;;;;;32.15;14.25;;;;;;;;;;5068887;28;20462;-80
2021/01/14 06:45:14;;;;;;;22.15;11.25;;;;;;;;;;5065713;28;20076;-80
2021/01/14 06:47:43;;;;;;;32.20;17.40;;;;;;;;;;5052590;28;20059;-80
2021/01/14 06:50:18;;;;;;;29.52;13.13;;;;;;;;;;5060309;28;20098;-80
2021/01/14 06:52:54;;;;;;;33.50;14.27;;;;;;;;;;5055848;28;20060;-81
2021/01/14 06:55:22;;;;;;;33.00;14.00;;;;;;;;;;5058796;28;20091;-80
2021/01/14 06:58:12;;;;;;;31.60;14.15;;;;;;;;;;5058852;28;20167;-80
2021/01/14 07:00:47;;;;;;;41.00;16.08;;;;;;;;;;5055967;28;20048;-80
2021/01/14 07:03:17;;;;;;;32.15;15.00;;;;;;;;;;5052988;28;20647;-81
2021/01/14 07:05:53;;;;;;;31.23;13.70;;;;;;;;;;5063482;28;20049;-80
2021/01/14 07:08:38;;;;;;;33.28;13.40;;;;;;;;;;5062826;28;20624;-80
2021/01/14 07:11:16;;;;;;;26.27;12.13;;;;;;;;;;5052683;28;20128;-79
2021/01/14 07:13:44;;;;;;;34.47;11.82;;;;;;;;;;5061484;28;20041;-80
2021/01/14 07:16:11;;;;;;;29.85;11.57;;;;;;;;;;5057415;28;20119;-81
2021/01/14 07:18:40;;;;;;;29.25;11.90;;;;;;;;;;5058678;28;20503;-83
2021/01/14 07:21:26;;;;;;;33.70;11.90;;;;;;;;;;5069555;28;20037;-85
2021/01/14 07:23:56;;;;;;;33.38;12.77;;;;;;;;;;5062226;28;20045;-84
2021/01/14 07:26:24;;;;;;;32.05;12.13;;;;;;;;;;5052752;28;20049;-81
2021/01/14 07:28:51;;;;;;;31.13;12.10;;;;;;;;;;5054244;28;20128;-82
2021/01/14 07:31:19;;;;;;;27.65;11.88;;;;;;;;;;5054125;28;20076;-82
2021/01/14 07:33:49;;;;;;;40.88;11.52;;;;;;;;;;5059255;28;20049;-79
2021/01/14 07:36:16;;;;;;;31.20;12.18;;;;;;;;;;5052451;28;20545;-84
2021/01/14 07:38:47;;;;;;;27.45;10.60;;;;;;;;;;5067302;28;20127;-81
2021/01/14 07:41:13;;;;;;;29.65;11.32;;;;;;;;;;5054273;28;20079;-86
2021/01/14 07:43:45;;;;;;;25.77;11.05;;;;;;;;;;5058357;28;20413;-80
2021/01/14 07:46:12;;;;;;;28.63;10.93;;;;;;;;;;5062684;28;20451;-82
2021/01/14 07:48:40;;;;;;;26.10;11.02;;;;;;;;;;5064944;28;20118;-83
2021/01/14 07:51:07;;;;;;;18.95;9.50;;;;;;;;;;5058975;28;20049;-83
2021/01/14 07:53:34;;;;;;;29.50;11.13;;;;;;;;;;5055076;28;20094;-83
2021/01/14 07:56:19;;;;;;;25.25;10.60;;;;;;;;;;5058225;28;20106;-80
2021/01/14 07:58:46;;;;;;;;;;;;;;;;;;5060781;28;20444;-83
2021/01/14 08:01:12;;;;;;;29.02;10.55;;;;;;;;;;5060463;28;20011;-83
2021/01/14 08:03:40;;;;;;;23.55;9.25;;;;;;;;;;5058058;28;20044;-82
2021/01/14 08:06:18;;;;;;;27.30;10.43;;;;;;;;;;5054174;28;20037;-79
2021/01/14 08:09:07;;;;;;;26.48;10.88;;;;;;;;;;5058658;28;20094;-81
2021/01/14 08:11:50;;;;;;;22.52;9.73;;;;;;;;;;5057805;28;20106;-85
2021/01/14 08:14:21;;;;;;;26.10;11.10;;;;;;;;;;5052688;28;20045;-86
2021/01/14 08:16:51;;;;;;;20.20;9.75;;;;;;;;;;5054593;28;20076;-81
2021/01/14 08:19:31;;;;;;;22.52;9.95;;;;;;;;;;5059889;28;20092;-80
2021/01/14 08:21:57;;;;;;;28.67;11.32;;;;;;;;;;5057946;28;20079;-80
2021/01/14 08:24:45;;;;;;;31.45;12.60;;;;;;;;;;5062143;28;20092;-83
2021/01/14 08:27:23;;;;;;;30.67;12.65;;;;;;;;;;5063604;28;20049;-81
2021/01/14 08:30:10;;;;;;;35.63;12.82;;;;;;;;;;5053566;28;20107;-81
2021/01/14 08:32:41;;;;;;;29.50;11.57;;;;;;;;;;5041258;28;20130;-83
2021/01/14 08:35:30;;;;;;;36.60;13.13;;;;;;;;;;5058606;28;20049;-86
2021/01/14 08:38:11;;;;;;;32.53;14.13;;;;;;;;;;5067523;28;20048;-84
2021/01/14 08:40:53;;;;;;;37.33;13.25;;;;;;;;;;5060554;28;20100;-84
2021/01/14 08:43:23;;;;;;;28.85;12.50;;;;;;;;;;5050954;28;20045;-84
2021/01/14 08:45:54;;;;;;;30.45;12.38;;;;;;;;;;5054064;28;20447;-85
2021/01/14 08:48:26;;;;;;;31.88;12.35;;;;;;;;;;5055055;28;20099;-83
2021/01/14 08:50:55;;;;;;;33.67;11.80;;;;;;;;;;5053370;28;20041;-86
2021/01/14 08:53:25;;;;;;;35.63;11.18;;;;;;;;;;5067812;28;20131;-82
2021/01/14 08:55:59;;;;;;;31.20;11.02;;;;;;;;;;5063179;28;20118;-84
2021/01/14 08:58:38;;;;;;;24.13;10.13;;;;;;;;;;5058295;28;20539;-85
2021/01/14 09:01:06;;;;;;;21.60;8.43;;;;;;;;;;5052329;28;20524;-81
2021/01/14 09:03:42;;;;;;;20.55;9.07;;;;;;;;;;5053790;28;20049;-82
2021/01/14 09:06:37;;;;;;;22.35;9.65;;;;;;;;;;5058148;28;20076;-83
2021/01/14 09:09:18;;;;;;;24.83;10.18;;;;;;;;;;5061550;28;20493;-82
2021/01/14 09:11:55;;;;;;;23.58;9.68;;;;;;;;;;5060649;28;20044;-82
2021/01/14 09:15:00;;;;;;;31.33;9.95;;;;;;;;;;5061852;28;20049;-83
2021/01/14 09:17:45;;;;;;;25.45;10.80;;;;;;;;;;5053863;28;20063;-85
2021/01/14 09:20:33;;;;;;;30.13;11.82;;;;;;;;;;5050498;28;20060;-84
2021/01/14 09:23:54;;;;;;;25.00;9.82;;;;;;;;;;5053210;28;20053;-87
2021/01/14 09:26:51;;;;;;;26.40;10.68;;;;;;;;;;5052133;28;20085;-86
2021/01/14 09:30:10;;;;;;;;;;;;;;;;;;;;;
2021/01/14 09:33:21;;;;;;;32.05;12.23;;;;;;;;;;5043521;28;20049;-84
2021/01/14 09:36:04;;;;;;;32.20;14.35;;;;;;;;;;5023561;28;20053;-86
2021/01/14 09:39:13;;;;;;;;;;;;;;;;;;;;;
2021/01/14 09:42:05;;;;;;;25.15;11.05;;;;;;;;;;4942702;29;20588;-86
2021/01/14 09:44:46;;;;;;;25.73;10.95;;;;;;;;;;4941160;28;20055;-87
2021/01/14 09:47:49;;;;;;;23.05;9.50;;;;;;;;;;4936677;29;20079;-84
2021/01/14 09:50:30;;;;;;;23.30;9.70;;;;;;;;;;4917532;29;20075;-85
2021/01/14 09:53:16;;;;;;;23.92;9.38;;;;;;;;;;4954827;28;20089;-85
2021/01/14 10:03:09;;;;;;;22.88;8.80;;;;;;;;;;4938015;28;20055;-88
2021/01/14 10:06:55;;;;;;;;;;;;;;;;;;;;;
2021/01/14 10:09:46;;;;;;;30.58;10.38;;;;;;;;;;4980747;28;20096;-87
2021/01/14 10:12:38;;;;;;;20.25;8.75;;;;;;;;;;4952635;28;20465;-86
2021/01/14 10:15:10;;;;;;;18.60;7.70;;;;;;;;;;5050643;28;20130;-87
2021/01/14 10:18:16;;;;;;;26.83;9.02;;;;;;;;;;5057172;28;20052;-86
2021/01/14 10:21:02;;;;;;;22.45;8.65;;;;;;;;;;5056667;28;20095;-85
2021/01/14 10:23:30;;;;;;;21.98;8.68;;;;;;;;;;5047244;28;20064;-85
2021/01/14 10:25:56;;;;;;;23.67;8.90;;;;;;;;;;5056262;28;20079;-85
2021/01/14 10:28:23;;;;;;;21.40;9.90;;;;;;;;;;5059691;28;20037;-84
2021/01/14 10:30:51;;;;;;;19.05;9.73;;;;;;;;;;5052384;28;20120;-86
2021/01/14 10:33:18;;;;;;;27.60;10.60;;;;;;;;;;5053551;28;20065;-85
2021/01/14 10:35:56;;;;;;;21.83;9.43;;;;;;;;;;5054803;28;20098;-85
2021/01/14 10:38:23;;;;;;;19.65;9.13;;;;;;;;;;5055725;28;20052;-86
2021/01/14 10:40:51;;;;;;;27.20;11.40;;;;;;;;;;5058534;28;20073;-86
2021/01/14 10:43:34;;;;;;;22.95;7.80;;;;;;;;;;5051244;28;20045;-87
2021/01/14 10:46:04;;;;;;;19.35;9.13;;;;;;;;;;5061525;28;20053;-88
2021/01/14 10:48:39;;;;;;;18.88;9.40;;;;;;;;;;5063679;28;20551;-89
2021/01/14 10:51:10;;;;;;;21.60;8.48;;;;;;;;;;5053111;28;20045;-87
2021/01/14 10:53:37;;;;;;;21.58;9.07;;;;;;;;;;5046631;28;20049;-88
2021/01/14 10:56:21;;;;;;;21.05;9.00;;;;;;;;;;5069812;28;20072;-87
2021/01/14 10:59:06;;;;;;;21.77;9.18;;;;;;;;;;5065761;28;20132;-83
2021/01/14 11:01:33;;;;;;;17.83;8.80;;;;;;;;;;5051957;28;20075;-82
2021/01/14 11:04:10;;;;;;;23.55;8.70;;;;;;;;;;5051562;28;20103;-81
2021/01/14 11:06:39;;;;;;;20.95;9.13;;;;;;;;;;5052180;28;20053;-85
2021/01/14 11:09:10;;;;;;;19.85;8.15;;;;;;;;;;5060883;28;20060;-86
2021/01/14 11:11:37;;;;;;;18.00;8.80;;;;;;;;;;5055005;28;20048;-86
2021/01/14 11:14:29;;;;;;;18.55;9.43;;;;;;;;;;5056633;28;20073;-88
2021/01/14 11:17:21;;;;;;;42.83;11.05;;;;;;;;;;5014066;28;20439;-86
2021/01/14 11:20:20;;;;;;;23.20;9.13;;;;;;;;;;5004218;28;20104;-86
2021/01/14 11:22:48;;;;;;;19.40;8.07;;;;;;;;;;5000672;28;20061;-89
2021/01/14 11:25:17;;;;;;;17.63;7.85;;;;;;;;;;5003134;28;20052;-90
2021/01/14 11:27:54;;;;;;;17.15;7.93;;;;;;;;;;5009429;28;20057;-89
2021/01/14 11:30:28;;;;;;;20.85;7.80;;;;;;;;;;4992301;28;20431;-83
2021/01/14 11:32:57;;;;;;;16.55;7.55;;;;;;;;;;5014948;28;20045;-83
2021/01/14 11:35:28;;;;;;;17.42;7.72;;;;;;;;;;4991465;28;20046;-84
2021/01/14 11:37:54;;;;;;;18.98;8.32;;;;;;;;;;5011759;28;20049;-85
2021/01/14 11:40:23;;;;;;;19.95;8.85;;;;;;;;;;4993093;28;20053;-85
2021/01/14 11:43:07;;;;;;;14.35;7.53;;;;;;;;;;5001562;28;20054;-81
2021/01/14 11:45:38;;;;;;;16.05;7.43;;;;;;;;;;4990130;28;20065;-81
2021/01/14 11:48:08;;;;;;;20.02;8.27;;;;;;;;;;5032928;28;20124;-83
2021/01/14 11:50:39;;;;;;;15.55;7.32;;;;;;;;;;5048206;28;20052;-82
2021/01/14 11:53:11;;;;;;;14.18;6.32;;;;;;;;;;5045242;28;20370;-83
2021/01/14 11:55:44;;;;;;;13.13;6.80;;;;;;;;;;5047191;28;20045;-82
2021/01/14 11:58:27;;;;;;;15.07;6.95;;;;;;;;;;5054818;28;20448;-82
2021/01/14 12:01:20;;;;;;;;;;;;;;;;;;;;;
2021/01/14 12:03:50;;;;;;;15.52;7.95;;;;;;;;;;5050380;28;20045;-82
2021/01/14 12:06:19;;;;;;;16.20;7.65;;;;;;;;;;5063609;28;20040;-82
2021/01/14 12:08:48;;;;;;;15.23;7.45;;;;;;;;;;5060461;28;20077;-82
2021/01/14 12:11:24;;;;;;;20.52;7.95;;;;;;;;;;5053709;28;20084;-82
2021/01/14 12:14:03;;;;;;;18.30;7.88;;;;;;;;;;5054279;28;20055;-82
2021/01/14 12:16:30;;;;;;;15.63;7.32;;;;;;;;;;5051932;28;20122;-82
2021/01/14 12:18:58;;;;;;;17.30;7.40;;;;;;;;;;5054776;28;20053;-82
2021/01/14 12:21:29;;;;;;;20.35;7.75;;;;;;;;;;5052896;28;20648;-84
2021/01/14 12:24:06;;;;;;;21.10;8.25;;;;;;;;;;5058672;28;20052;-87
2021/01/14 12:26:35;;;;;;;15.40;7.63;;;;;;;;;;5055915;28;20045;-83
2021/01/14 12:29:16;;;;;;;14.57;7.85;;;;;;;;;;5060777;28;20095;-82
2021/01/14 12:31:49;;;;;;;17.77;8.02;;;;;;;;;;5048285;28;20049;-82
2021/01/14 12:40:32;;;;;;;25.02;11.60;;;;;;;;;;4979943;28;20165;-81
2021/01/14 12:42:59;;;;;;;26.48;9.05;;;;;;;;;;4986475;28;20086;-81
2021/01/14 12:45:45;;;;;;;19.17;8.98;;;;;;;;;;4982101;28;20043;-81
2021/01/14 12:48:19;;;;;;;18.00;8.90;;;;;;;;;;4992591;28;20605;-81
2021/01/14 12:50:49;;;;;;;23.23;8.35;;;;;;;;;;4982115;28;20049;-84
2021/01/14 12:53:19;;;;;;;16.88;7.00;;;;;;;;;;4989878;28;20446;-84
2021/01/14 12:55:55;;;;;;;18.00;8.48;;;;;;;;;;5031593;28;20048;-81
2021/01/14 12:58:26;;;;;;;19.23;8.07;;;;;;;;;;5054268;28;20045;-80
2021/01/14 13:00:54;;;;;;;20.65;7.85;;;;;;;;;;5066424;28;20049;-86
2021/01/14 13:03:21;;;;;;;15.07;7.82;;;;;;;;;;5053124;28;20482;-84
2021/01/14 13:05:51;;;;;;;15.98;7.43;;;;;;;;;;5053211;28;20051;-82
2021/01/14 13:08:22;;;;;;;20.65;8.48;;;;;;;;;;5054479;28;20045;-82
2021/01/14 13:10:48;;;;;;;13.77;6.53;;;;;;;;;;5055659;28;20139;-84
2021/01/14 13:13:19;;;;;;;17.92;7.35;;;;;;;;;;5049827;28;20049;-81
2021/01/14 13:16:13;;;;;;;15.60;6.72;;;;;;;;;;5045256;28;20080;-82
2021/01/14 13:18:51;;;;;;;;;;;;;;;;;;;;;
2021/01/14 13:21:46;;;;;;;15.60;7.50;;;;;;;;;;5046611;28;20048;-84
2021/01/14 13:24:26;;;;;;;18.50;6.95;;;;;;;;;;5048527;28;20112;-83
2021/01/14 13:27:20;;;;;;;;;;;;;;;;;;;;;
2021/01/14 13:30:44;;;;;;;;;;;;;;;;;;;;;
2021/01/14 13:33:48;;;;;;;18.42;7.32;;;;;;;;;;4947262;28;20054;-82
2021/01/14 13:37:14;;;;;;;14.88;8.30;;;;;;;;;;4861537;29;20061;-84
2021/01/14 13:39:47;;;;;;;19.77;8.00;;;;;;;;;;4879209;29;20139;-84
2021/01/14 13:42:22;;;;;;;19.92;9.20;;;;;;;;;;4872622;29;20789;-84
2021/01/14 13:45:02;;;;;;;21.00;9.43;;;;;;;;;;4873879;29;20479;-81
2021/01/14 13:47:37;;;;;;;22.25;10.05;;;;;;;;;;4869266;29;20052;-82
2021/01/14 13:50:14;;;;;;;21.35;10.85;;;;;;;;;;4874278;29;20069;-82
2021/01/14 13:52:41;;;;;;;18.70;8.20;;;;;;;;;;4872834;29;20056;-82
2021/01/14 13:55:08;;;;;;;22.38;10.40;;;;;;;;;;4919516;29;20065;-82
2021/01/14 13:58:05;;;;;;;30.30;12.55;;;;;;;;;;4929922;28;20061;-82
2021/01/14 14:00:54;;;;;;;18.27;8.35;;;;;;;;;;4958322;28;20133;-81
2021/01/14 14:03:21;;;;;;;21.23;9.15;;;;;;;;;;5006206;28;20053;-81
2021/01/14 14:05:48;;;;;;;18.10;8.32;;;;;;;;;;5043940;28;20052;-81
2021/01/14 14:08:15;;;;;;;20.42;9.27;;;;;;;;;;5046772;28;20780;-83
2021/01/14 14:10:45;;;;;;;17.40;7.07;;;;;;;;;;5046244;28;20432;-83
2021/01/14 14:13:11;;;;;;;18.38;7.95;;;;;;;;;;5045534;28;20055;-84
2021/01/14 14:15:42;;;;;;;22.27;7.80;;;;;;;;;;5046372;28;20721;-84
2021/01/14 14:18:31;;;;;;;16.33;7.10;;;;;;;;;;5023336;28;20067;-88
2021/01/14 14:21:03;;;;;;;16.52;8.18;;;;;;;;;;5045329;28;22680;-88
2021/01/14 14:23:32;;;;;;;14.77;6.90;;;;;;;;;;5045552;28;20103;-88
2021/01/14 14:26:01;;;;;;;21.38;6.78;;;;;;;;;;5047581;28;20317;-87
2021/01/14 14:28:28;;;;;;;19.33;8.50;;;;;;;;;;5051030;28;20114;-88
2021/01/14 14:30:58;;;;;;;18.23;8.40;;;;;;;;;;5052010;28;20083;-87
2021/01/14 14:33:28;;;;;;;14.20;7.15;;;;;;;;;;5047622;28;20049;-88
2021/01/14 14:35:55;;;;;;;18.98;7.38;;;;;;;;;;5046096;28;20429;-89
2021/01/14 14:38:22;;;;;;;15.70;6.72;;;;;;;;;;5048434;28;20049;-88
2021/01/14 14:40:49;;;;;;;17.20;8.73;;;;;;;;;;5050364;28;21269;-86
2021/01/14 14:43:16;;;;;;;20.70;9.80;;;;;;;;;;5050083;28;20056;-89
2021/01/14 14:46:04;;;;;;;19.08;7.82;;;;;;;;;;5047497;28;20061;-87
2021/01/14 14:48:38;;;;;;;24.48;11.18;;;;;;;;;;5049471;28;20470;-88
2021/01/14 14:51:11;;;;;;;20.73;10.27;;;;;;;;;;5047524;28;20463;-87
2021/01/14 14:53:43;;;;;;;18.65;7.97;;;;;;;;;;5046287;28;20440;-88
2021/01/14 14:56:11;;;;;;;23.52;8.30;;;;;;;;;;5046149;28;20046;-88
2021/01/14 14:58:38;;;;;;;16.95;7.35;;;;;;;;;;5049361;28;20049;-89
2021/01/14 15:01:08;;;;;;;17.40;7.88;;;;;;;;;;5043210;28;20044;-87
2021/01/14 15:03:39;;;;;;;17.08;7.40;;;;;;;;;;5043783;28;20053;-88
2021/01/14 15:06:10;;;;;;;20.58;8.10;;;;;;;;;;5048592;28;20115;-88
2021/01/14 15:08:37;;;;;;;18.25;7.88;;;;;;;;;;5047844;28;20047;-88
2021/01/14 15:11:04;;;;;;;13.68;6.57;;;;;;;;;;5047725;28;20037;-88
2021/01/14 15:13:45;;;;;;;27.20;7.28;;;;;;;;;;5045222;28;20091;-88
2021/01/14 15:16:14;;;;;;;18.48;6.10;;;;;;;;;;5049099;28;20371;-87
2021/01/14 15:18:56;;;;;;;10.93;5.45;;;;;;;;;;5046731;28;20076;-88
2021/01/14 15:21:27;;;;;;;16.85;6.57;;;;;;;;;;5046994;28;20499;-88
2021/01/14 15:23:54;;;;;;;19.42;7.47;;;;;;;;;;5050967;28;20049;-88
2021/01/14 15:26:21;;;;;;;26.30;7.97;;;;;;;;;;5055020;28;20136;-88
2021/01/14 15:28:48;;;;;;;20.48;8.18;;;;;;;;;;5053269;28;20041;-89